Time,TemperatureF,DewpointF,PressureIn,WindDirection,WindDirectionDegrees,WindSpeedMPH,WindSpeedGustMPH,Humidity,HourlyPrecipIn,Conditions,Clouds,dailyrainin,SoftwareType,DateUTC
2013-03-01 00:09:00,48.2,44.8,30.43,SSE,148,0.0,0.0,88,0.00,,,-99.99,Weather View 32 v60,2013-03-01 08:09:00,
2013-03-01 00:19:00,48.0,44.6,30.43,SSE,148,0.0,0.0,88,0.00,,,-99.99,Weather View 32 v60,2013-03-01 08:19:00,
2013-03-01 00:29:00,47.8,44.7,30.43,SSE,148,0.0,0.0,89,0.00,,,-99.99,Weather View 32 v60,2013-03-01 08:29:00,
2013-03-01 00:39:00,47.7,44.6,30.43,SSE,148,0.0,0.0,89,0.00,,,-99.99,Weather View 32 v60,2013-03-01 08:39:00,
2013-03-01 00:49:00,47.3,44.2,30.43,SSE,148,0.0,0.0,89,0.00,,,-99.99,Weather View 32 v60,2013-03-01 08:49:00,
2013-03-01 00:59:00,47.1,44.3,30.43,SSE,148,0.0,0.0,90,0.00,,,-99.99,Weather View 32 v60,2013-03-01 08:59:00,
2013-03-01 01:09:00,46.9,44.2,30.43,SSE,148,0.0,0.0,90,0.00,,,-99.99,Weather View 32 v60,2013-03-01 09:09:00,
2013-03-01 01:19:00,46.6,43.8,30.43,SSE,148,0.0,0.0,90,0.00,,,-99.99,Weather View 32 v60,2013-03-01 09:19:00,
2013-03-01 01:30:00,46.4,43.6,30.43,SSE,148,0.0,0.0,90,0.00,,,-99.99,Weather View 32 v60,2013-03-01 09:30:00,
2013-03-01 01:39:00,46.2,43.7,30.43,SSE,148,0.0,0.0,91,0.00,,,-99.99,Weather View 32 v60,2013-03-01 09:39:00,
2013-03-01 01:50:00,46.0,43.6,30.43,SSE,148,0.0,0.0,91,0.00,,,-99.99,Weather View 32 v60,2013-03-01 09:50:00,
2013-03-01 01:59:00,45.9,43.4,30.43,SSE,148,0.0,0.0,91,0.00,,,-99.99,Weather View 32 v60,2013-03-01 09:59:00,
2013-03-01 02:09:00,45.5,43.0,30.43,SSE,148,0.0,0.0,91,0.00,,,-99.99,Weather View 32 v60,2013-03-01 10:09:00,
2013-03-01 02:20:00,45.3,43.1,30.43,SSE,148,0.0,0.0,92,0.00,,,-99.99,Weather View 32 v60,2013-03-01 10:20:00,
2013-03-01 02:29:00,45.3,43.4,30.43,SSE,148,0.0,0.0,93,0.00,,,-99.99,Weather View 32 v60,2013-03-01 10:29:00,
2013-03-01 02:39:00,45.1,43.2,30.43,SSE,148,0.0,0.0,93,0.00,,,-99.99,Weather View 32 v60,2013-03-01 10:39:00,
2013-03-01 02:49:00,44.8,42.9,30.43,SSE,148,0.0,0.0,93,0.00,,,-99.99,Weather View 32 v60,2013-03-01 10:49:00,
2013-03-01 02:59:00,44.8,43.2,30.43,SSE,148,0.0,0.0,94,0.00,,,-99.99,Weather View 32 v60,2013-03-01 10:59:00,
2013-03-01 03:09:00,44.4,42.8,30.43,SSE,148,0.0,0.0,94,0.00,,,-99.99,Weather View 32 v60,2013-03-01 11:09:00,
2013-03-01 03:19:00,44.2,42.6,30.43,SSE,148,0.0,0.0,94,0.00,,,-99.99,Weather View 32 v60,2013-03-01 11:19:00,
2013-03-01 03:29:00,44.1,42.4,30.43,SSE,148,0.0,0.0,94,0.00,,,-99.99,Weather View 32 v60,2013-03-01 11:29:00,
2013-03-01 03:39:00,43.9,42.3,30.43,SSE,148,0.0,0.0,94,0.00,,,-99.99,Weather View 32 v60,2013-03-01 11:39:00,
2013-03-01 03:49:00,43.7,42.1,30.43,SSE,148,0.0,0.0,94,0.00,,,-99.99,Weather View 32 v60,2013-03-01 11:49:00,
2013-03-01 03:59:00,43.5,41.9,30.43,SSE,148,0.0,0.0,94,0.00,,,-99.99,Weather View 32 v60,2013-03-01 11:59:00,
2013-03-01 04:09:00,43.3,41.7,30.43,SSE,148,0.0,0.0,94,0.00,,,-99.99,Weather View 32 v60,2013-03-01 12:09:00,
2013-03-01 04:19:00,43.0,41.4,30.43,SSE,148,0.0,0.0,94,0.00,,,-99.99,Weather View 32 v60,2013-03-01 12:19:00,
2013-03-01 04:29:00,42.8,41.2,30.43,SSE,148,0.0,0.0,94,0.00,,,-99.99,Weather View 32 v60,2013-03-01 12:29:00,
2013-03-01 04:39:00,42.8,41.2,30.43,SSE,148,0.0,0.0,94,0.00,,,-99.99,Weather View 32 v60,2013-03-01 12:39:00,
2013-03-01 04:49:00,42.8,41.5,30.43,SSE,148,0.0,0.0,95,0.00,,,-99.99,Weather View 32 v60,2013-03-01 12:49:00,
2013-03-01 04:59:00,42.4,41.1,30.43,SSE,148,0.0,0.0,95,0.00,,,-99.99,Weather View 32 v60,2013-03-01 12:59:00,
2013-03-01 05:09:00,42.4,41.1,30.43,SSE,148,0.0,0.0,95,0.00,,,-99.99,Weather View 32 v60,2013-03-01 13:09:00,
2013-03-01 05:19:00,42.3,40.9,30.43,SSE,148,0.0,0.0,95,0.00,,,-99.99,Weather View 32 v60,2013-03-01 13:19:00,
2013-03-01 05:29:00,42.3,40.9,30.43,SSE,148,0.0,0.0,95,0.00,,,-99.99,Weather View 32 v60,2013-03-01 13:29:00,
2013-03-01 05:39:00,42.1,40.7,30.43,SSE,148,0.0,0.0,95,0.00,,,-99.99,Weather View 32 v60,2013-03-01 13:39:00,
2013-03-01 05:49:00,41.7,40.4,30.43,SSE,148,0.0,0.0,95,0.00,,,-99.99,Weather View 32 v60,2013-03-01 13:49:00,
2013-03-01 05:59:00,41.7,40.4,30.43,SSE,148,0.0,0.0,95,0.00,,,-99.99,Weather View 32 v60,2013-03-01 13:59:00,
2013-03-01 06:09:00,41.5,40.2,30.43,SSE,148,0.0,0.0,95,0.00,,,-99.99,Weather View 32 v60,2013-03-01 14:09:00,
2013-03-01 06:19:00,41.5,40.5,30.43,SSE,148,0.0,0.0,96,0.00,,,-99.99,Weather View 32 v60,2013-03-01 14:19:00,
2013-03-01 06:29:00,41.4,40.3,30.43,SSE,148,0.0,0.0,96,0.00,,,-99.99,Weather View 32 v60,2013-03-01 14:29:00,
2013-03-01 06:39:00,41.4,40.3,30.43,SSE,148,0.0,0.0,96,0.00,,,-99.99,Weather View 32 v60,2013-03-01 14:39:00,
2013-03-01 06:49:00,41.4,40.3,30.43,SSE,148,0.0,0.0,96,0.00,,,-99.99,Weather View 32 v60,2013-03-01 14:49:00,
2013-03-01 06:59:00,41.5,40.5,30.43,SSE,148,0.0,0.0,96,0.00,,,-99.99,Weather View 32 v60,2013-03-01 14:59:00,
2013-03-01 07:09:00,42.1,41.0,30.43,SSE,148,0.0,0.0,96,0.00,,,-99.99,Weather View 32 v60,2013-03-01 15:09:00,
2013-03-01 07:19:00,42.6,41.8,30.43,SSE,148,0.0,0.0,97,0.00,,,-99.99,Weather View 32 v60,2013-03-01 15:19:00,
2013-03-01 07:29:00,43.5,42.7,30.43,SSE,148,0.0,0.0,97,0.00,,,-99.99,Weather View 32 v60,2013-03-01 15:29:00,
2013-03-01 07:39:00,44.8,44.0,30.43,SSE,148,0.0,0.0,97,0.00,,,-99.99,Weather View 32 v60,2013-03-01 15:39:00,
2013-03-01 07:45:00,44.8,44.0,30.43,SSE,148,0.0,0.0,97,0.00,,,-99.99,Weather View 32 v60,2013-03-01 15:45:00,
2013-03-01 07:59:00,47.5,46.7,30.41,SSE,148,0.0,0.0,97,0.00,,,-99.99,Weather View 32 v60,2013-03-01 15:59:00,
2013-03-01 08:09:00,48.7,47.6,30.41,SSE,148,0.0,0.0,96,0.00,,,-99.99,Weather View 32 v60,2013-03-01 16:09:00,
2013-03-01 08:19:00,50.0,48.1,30.41,East,80,0.0,0.0,93,0.00,,,-99.99,Weather View 32 v60,2013-03-01 16:19:00,
2013-03-01 08:29:00,51.3,46.9,30.41,East,80,0.0,0.0,85,0.00,,,-99.99,Weather View 32 v60,2013-03-01 16:29:00,
2013-03-01 08:39:00,52.3,46.0,30.41,East,80,0.0,0.0,79,0.00,,,-99.99,Weather View 32 v60,2013-03-01 16:39:00,
2013-03-01 08:45:00,52.3,46.0,30.41,East,80,0.0,0.0,79,0.00,,,-99.99,Weather View 32 v60,2013-03-01 16:45:00,
2013-03-01 08:59:00,54.3,45.5,30.41,NNE,24,0.0,0.0,72,0.00,,,-99.99,Weather View 32 v60,2013-03-01 16:59:00,
2013-03-01 09:09:00,55.4,45.4,30.41,NNE,24,0.0,0.0,69,0.00,,,-99.99,Weather View 32 v60,2013-03-01 17:09:00,
2013-03-01 09:19:00,56.7,45.4,30.41,NNE,24,0.0,0.0,66,0.00,,,-99.99,Weather View 32 v60,2013-03-01 17:19:00,
2013-03-01 09:29:00,57.7,46.0,30.41,NNE,21,0.0,0.0,65,0.00,,,-99.99,Weather View 32 v60,2013-03-01 17:29:00,
2013-03-01 09:39:00,58.8,45.8,30.41,NNE,17,0.0,0.0,62,0.00,,,-99.99,Weather View 32 v60,2013-03-01 17:39:00,
2013-03-01 09:46:00,58.8,45.8,30.41,NNE,17,0.0,0.0,62,0.00,,,-99.99,Weather View 32 v60,2013-03-01 17:46:00,
2013-03-01 09:59:00,62.1,44.2,30.38,East,101,0.0,0.0,52,0.00,,,-99.99,Weather View 32 v60,2013-03-01 17:59:00,
2013-03-01 10:09:00,63.7,43.6,30.38,WSW,243,0.0,0.0,48,0.00,,,-99.99,Weather View 32 v60,2013-03-01 18:09:00,
2013-03-01 10:19:00,65.3,44.5,30.38,West,261,0.0,0.0,47,0.00,,,-99.99,Weather View 32 v60,2013-03-01 18:19:00,
2013-03-01 10:29:00,66.7,44.1,30.38,SE,130,0.0,0.0,44,0.00,,,-99.99,Weather View 32 v60,2013-03-01 18:29:00,
2013-03-01 10:39:00,67.8,41.9,30.38,ENE,78,0.0,0.0,39,0.00,,,-99.99,Weather View 32 v60,2013-03-01 18:39:00,
2013-03-01 10:46:00,67.8,41.9,30.38,ENE,78,0.0,0.0,39,0.00,,,-99.99,Weather View 32 v60,2013-03-01 18:46:00,
2013-03-01 10:50:00,68.4,41.0,30.38,NNE,27,0.0,7.0,37,0.00,,,-99.99,Weather View 32 v60,2013-03-01 18:50:00,
2013-03-01 10:55:00,68.4,41.0,30.38,NNE,27,0.0,7.0,37,0.00,,,-99.99,Weather View 32 v60,2013-03-01 18:55:00,
2013-03-01 11:10:00,69.4,40.5,30.38,NE,55,0.0,9.0,35,0.00,,,-99.99,Weather View 32 v60,2013-03-01 19:10:00,
2013-03-01 11:20:00,69.8,40.8,30.38,East,100,0.0,9.0,35,0.00,,,-99.99,Weather View 32 v60,2013-03-01 19:20:00,
2013-03-01 11:30:00,70.3,41.3,30.38,ESE,116,0.0,9.0,35,0.00,,,-99.99,Weather View 32 v60,2013-03-01 19:30:00,
2013-03-01 11:39:00,71.4,41.5,30.38,NNE,27,0.0,9.0,34,0.00,,,-99.99,Weather View 32 v60,2013-03-01 19:39:00,
2013-03-01 11:49:00,71.6,41.7,30.38,NE,52,0.0,9.0,34,0.00,,,-99.99,Weather View 32 v60,2013-03-01 19:49:00,
2013-03-01 11:55:00,71.6,41.7,30.38,NE,52,0.0,9.0,34,0.00,,,-99.99,Weather View 32 v60,2013-03-01 19:55:00,
2013-03-01 12:00:00,71.1,41.2,30.38,NE,52,4.0,8.0,34,0.00,,,-99.99,Weather View 32 v60,2013-03-01 20:00:00,
2013-03-01 19:49:00,59.7,44.0,30.26,NE,46,0.0,0.0,56,0.00,,,-99.99,Weather View 32 v60,2013-03-02 03:49:00,
2013-03-01 19:59:00,59.0,43.8,30.26,NE,46,0.0,0.0,57,0.00,,,-99.99,Weather View 32 v60,2013-03-02 03:59:00,
2013-03-01 20:19:00,57.6,45.0,30.29,NE,46,0.0,0.0,63,0.00,,,-99.99,Weather View 32 v60,2013-03-02 04:19:00,
2013-03-01 20:29:00,57.2,44.7,30.29,NE,46,0.0,0.0,63,0.00,,,-99.99,Weather View 32 v60,2013-03-02 04:29:00,
2013-03-01 20:39:00,56.7,44.6,30.29,NE,46,0.0,0.0,64,0.00,,,-99.99,Weather View 32 v60,2013-03-02 04:39:00,
2013-03-01 20:46:00,56.7,44.6,30.29,NE,46,0.0,0.0,64,0.00,,,-99.99,Weather View 32 v60,2013-03-02 04:46:00,
2013-03-01 20:59:00,55.6,45.5,30.29,NE,46,0.0,0.0,69,0.00,,,-99.99,Weather View 32 v60,2013-03-02 04:59:00,
2013-03-01 21:09:00,55.0,45.4,30.29,NE,46,0.0,0.0,70,0.00,,,-99.99,Weather View 32 v60,2013-03-02 05:09:00,
2013-03-01 21:19:00,54.9,45.6,30.29,NE,46,0.0,0.0,71,0.00,,,-99.99,Weather View 32 v60,2013-03-02 05:19:00,
2013-03-01 21:29:00,54.5,45.3,30.29,NE,46,0.0,0.0,71,0.00,,,-99.99,Weather View 32 v60,2013-03-02 05:29:00,
2013-03-01 21:39:00,54.1,44.9,30.29,NE,46,0.0,0.0,71,0.00,,,-99.99,Weather View 32 v60,2013-03-02 05:39:00,
2013-03-01 21:47:00,54.1,44.9,30.29,NE,46,0.0,0.0,71,0.00,,,-99.99,Weather View 32 v60,2013-03-02 05:47:00,
2013-03-01 21:59:00,53.2,44.8,30.26,NE,46,0.0,0.0,73,0.00,,,-99.99,Weather View 32 v60,2013-03-02 05:59:00,
2013-03-01 22:09:00,53.1,44.6,30.26,NE,46,0.0,0.0,73,0.00,,,-99.99,Weather View 32 v60,2013-03-02 06:09:00,
2013-03-01 22:19:00,52.5,44.5,30.29,NE,46,0.0,0.0,74,0.00,,,-99.99,Weather View 32 v60,2013-03-02 06:19:00,
2013-03-01 22:29:00,52.0,43.9,30.29,NE,46,0.0,0.0,74,0.00,,,-99.99,Weather View 32 v60,2013-03-02 06:29:00,
2013-03-01 22:39:00,51.6,44.3,30.29,NE,46,0.0,0.0,76,0.00,,,-99.99,Weather View 32 v60,2013-03-02 06:39:00,
2013-03-01 22:47:00,51.6,44.3,30.29,NE,46,0.0,0.0,76,0.00,,,-99.99,Weather View 32 v60,2013-03-02 06:47:00,
2013-03-01 22:59:00,50.9,43.9,30.29,NE,46,0.0,0.0,77,0.00,,,-99.99,Weather View 32 v60,2013-03-02 06:59:00,
2013-03-01 23:09:00,50.7,44.1,30.29,NE,46,0.0,0.0,78,0.00,,,-99.99,Weather View 32 v60,2013-03-02 07:09:00,
2013-03-01 23:19:00,50.5,43.9,30.26,NE,46,0.0,0.0,78,0.00,,,-99.99,Weather View 32 v60,2013-03-02 07:19:00,
2013-03-01 23:29:00,50.2,43.6,30.26,NE,46,0.0,0.0,78,0.00,,,-99.99,Weather View 32 v60,2013-03-02 07:29:00,
2013-03-01 23:39:00,50.0,43.7,30.26,NE,46,0.0,0.0,79,0.00,,,-99.99,Weather View 32 v60,2013-03-02 07:39:00,
2013-03-01 23:48:00,50.0,43.7,30.26,NE,46,0.0,0.0,79,0.00,,,-99.99,Weather View 32 v60,2013-03-02 07:48:00,
2013-03-01 23:59:00,49.6,43.7,30.26,NE,46,0.0,0.0,80,0.00,,,-99.99,Weather View 32 v60,2013-03-02 07:59:00,